Pagrindinis puslapis
METAR-TAF:

METAR-TAF

Oro uostai :

Vju Fortas, Sent Lusija

platuma: 13-45N, ilguma: 060-57W, Aukštis: 3 m

Dabartinis oras

Ataskaita buvo paskelbta 11 minutes, ne 02:00 UTC
Vėjas 10 kt iš Rytų
Temperatūra 27°C
Drėgmė 84%
Slėgis 1014 hPa
Matomumas 10 km arba daugiau
Išsisklaidę debesys ne aukštis 2200 ft
Su prošvaistėmis ne aukštis 4000 ft

METAR: TLPL 290200Z 08010KT 9999 SCT022 BKN040 27/24 Q1014 TEMPO SHRA

Laikas: 22:11 (02:11 UTC)

Prognozė

Ataskaita buvo paskelbta 3 valandos ir 11 minutes, ne 23:00 UTC
Prognozė galioja nuo 29 metu 00 UTC su 29 metu 24 UTC
Vėjas 11 kt iš Rytų
Matomumas 10 km arba daugiau
Išsisklaidę debesys ne aukštis 2000 ft
Išsisklaidę debesys ne aukštis 4000 ft
Laikinai
nuo 29 metu 00 UTC su 29 metu 18 UTC
Mažai debesys ne aukštis 1200 ft, Liūtiniai kamuoliniai debesys.
Su prošvaistėmis ne aukštis 1400 ft
Su prošvaistėmis ne aukštis 3800 ft
lietus

TAF: TLPL 282300Z 2900/2924 08011KT 9999 SCT020 SCT040 TEMPO 2900/2918 SHRA FEW012CB BKN014 BKN038

Orai ataskaitas ir orų prognozės (METAR, TAF).

turimą stotys yra geltonos ir raudonos taškus žemėlapyje.

Perkelti pele per norėdami pamatyti stoties vardą.

Tada spustelėkite, norėdami matyti oro stebėjimo ir prognozės.

Norėdami pakeisti žemėlapį: spustelėkite ant žalios mygtukų su juodo kryžiaus žemyn,; žalią mygtuką su brūkšneliu, jei norite nutolinti; arba žalių rodyklių gretimoms žemėlapius.


METAR-TAF: